Time;durP1;ratioP1;P1;durP2;ratioP2;P2;SDS_P1;SDS_P2;PMS_P1;PMS_P2;Temp;Humidity;BMP_temperature;BMP_pressure;BME280_temperature;BME280_humidity;BME280_pressure;Samples;Min_cycle;Max_cycle;Signal;HPM_P1;HPM_P2
2022/07/06 00:00:56;;;;;;;5.47;3.17;;;;;;;17.01;51.38;102488.75;5084212;28;20033;-73
2022/07/06 00:03:21;;;;;;;4.65;3.05;;;;;;;16.92;51.35;102492.00;5088382;28;20056;-73
2022/07/06 00:05:46;;;;;;;5.65;3.10;;;;;;;16.93;51.23;102479.66;5079203;28;20060;-73
2022/07/06 00:08:12;;;;;;;5.20;3.20;;;;;;;16.89;51.66;102484.09;5070770;28;20040;-73
2022/07/06 00:10:37;;;;;;;4.43;3.15;;;;;;;16.86;52.12;102487.44;5070532;28;20029;-73
2022/07/06 00:13:02;;;;;;;5.93;3.55;;;;;;;16.85;51.98;102484.88;5072059;28;20055;-73
2022/07/06 00:15:27;;;;;;;4.97;2.95;;;;;;;16.81;52.04;102495.72;5070688;28;20036;-73
2022/07/06 00:17:53;;;;;;;4.35;3.10;;;;;;;16.85;51.88;102485.72;5069365;28;20470;-73
2022/07/06 00:20:18;;;;;;;6.40;3.42;;;;;;;16.77;52.08;102488.94;5082350;28;20024;-73
2022/07/06 00:22:43;;;;;;;5.43;3.05;;;;;;;16.77;52.17;102490.91;5071787;28;20369;-73
2022/07/06 00:25:09;;;;;;;6.80;3.25;;;;;;;16.71;52.26;102489.94;5068960;28;20021;-73
2022/07/06 00:27:34;;;;;;;4.22;2.90;;;;;;;16.74;52.28;102495.09;5066434;28;20036;-73
2022/07/06 00:29:59;;;;;;;4.45;3.08;;;;;;;16.71;52.41;102491.91;5071159;28;20036;-73
2022/07/06 00:32:25;;;;;;;3.58;3.08;;;;;;;16.67;52.65;102495.22;5070346;28;20468;-73
2022/07/06 00:34:50;;;;;;;6.20;3.05;;;;;;;16.66;52.64;102495.44;5070491;28;20066;-73
2022/07/06 00:37:15;;;;;;;6.97;3.00;;;;;;;16.63;52.61;102482.81;5069935;28;20106;-73
2022/07/06 00:39:41;;;;;;;4.57;2.83;;;;;;;16.63;52.79;102488.41;5070430;28;20149;-72
2022/07/06 00:42:06;;;;;;;6.68;3.22;;;;;;;16.56;52.65;102486.88;5070537;28;20028;-73
2022/07/06 00:44:33;;;;;;;4.53;3.03;;;;;;;16.64;52.71;102490.09;5070969;28;20095;-73
2022/07/06 00:46:58;;;;;;;7.20;3.40;;;;;;;16.60;52.82;102491.72;5071182;28;20023;-73
2022/07/06 00:52:07;;;;;;;5.00;3.22;;;;;;;16.54;53.14;102487.09;5076725;28;20042;-73
2022/07/06 00:54:34;;;;;;;3.97;3.20;;;;;;;16.55;53.25;102490.78;5071941;28;20025;-73
2022/07/06 00:56:59;;;;;;;5.45;3.83;;;;;;;16.44;53.30;102490.59;5070837;28;20383;-73
2022/07/06 00:59:26;;;;;;;4.72;3.40;;;;;;;16.44;53.60;102490.59;5070985;28;20021;-73
2022/07/06 01:01:52;;;;;;;5.30;3.72;;;;;;;16.40;53.50;102489.41;5070898;28;20039;-73
2022/07/06 01:04:17;;;;;;;4.70;3.35;;;;;;;16.37;53.45;102480.66;5069243;28;20029;-73
2022/07/06 01:06:45;;;;;;;4.70;3.85;;;;;;;16.31;54.13;102496.53;5069433;28;20468;-73
2022/07/06 01:09:11;;;;;;;4.15;3.65;;;;;;;16.29;53.83;102493.13;5073211;28;20066;-73
2022/07/06 01:11:36;;;;;;;4.18;3.65;;;;;;;16.29;53.88;102481.06;5070478;28;20480;-73
2022/07/06 01:14:01;;;;;;;6.55;3.80;;;;;;;16.27;53.45;102486.94;5068423;28;20031;-73
2022/07/06 01:16:27;;;;;;;6.45;3.67;;;;;;;16.19;53.91;102482.59;5068815;28;20029;-73
2022/07/06 01:18:52;;;;;;;6.85;4.50;;;;;;;16.16;53.98;102482.22;5071414;28;20028;-73
2022/07/06 01:21:17;;;;;;;4.53;4.10;;;;;;;16.20;53.82;102480.63;5071025;28;20021;-73
2022/07/06 01:23:44;;;;;;;5.30;3.63;;;;;;;16.19;53.79;102478.91;5070486;28;20039;-73
2022/07/06 01:26:15;;;;;;;6.57;4.22;;;;;;;16.10;54.11;102478.47;5076354;28;20036;-73
2022/07/06 01:28:41;;;;;;;6.35;4.07;;;;;;;16.01;54.17;102490.34;5070781;28;20029;-73
2022/07/06 01:31:18;;;;;;;6.60;4.10;;;;;;;16.04;53.84;102489.84;5071184;28;20051;-73
2022/07/06 01:33:44;;;;;;;6.60;4.00;;;;;;;16.04;54.14;102487.03;5067988;28;20025;-73
2022/07/06 01:36:09;;;;;;;6.20;3.70;;;;;;;16.04;54.35;102481.44;5071048;28;20032;-74
2022/07/06 01:38:58;;;;;;;5.75;4.38;;;;;;;16.09;53.73;102478.72;5070807;28;20036;-73
2022/07/06 01:41:23;;;;;;;7.90;4.57;;;;;;;16.07;54.14;102486.50;5074297;28;20062;-73
2022/07/06 01:43:48;;;;;;;5.68;4.50;;;;;;;15.99;54.32;102482.16;5071348;28;20534;-73
2022/07/06 01:46:14;;;;;;;6.18;4.35;;;;;;;15.93;54.18;102480.38;5068370;28;20043;-73
2022/07/06 01:48:40;;;;;;;5.90;4.35;;;;;;;16.01;54.35;102484.72;5070621;28;20035;-73
2022/07/06 01:51:06;;;;;;;5.32;4.40;;;;;;;15.94;54.33;102480.13;5073812;28;20488;-73
2022/07/06 01:53:31;;;;;;;6.15;4.57;;;;;;;15.88;54.41;102485.88;5073951;28;20028;-73
2022/07/06 01:55:56;;;;;;;7.10;4.93;;;;;;;15.76;54.70;102479.44;5072891;28;20021;-73
2022/07/06 01:58:22;;;;;;;9.50;4.65;;;;;;;15.80;54.46;102484.34;5074259;28;20099;-73
2022/07/06 02:00:47;;;;;;;9.13;5.00;;;;;;;15.76;54.72;102485.94;5074178;28;20051;-73
2022/07/06 02:03:13;;;;;;;5.93;4.80;;;;;;;15.65;55.14;102481.22;5073049;28;20483;-73
2022/07/06 02:05:38;;;;;;;7.05;5.15;;;;;;;15.74;54.83;102482.50;5073338;28;20046;-73
2022/07/06 02:08:03;;;;;;;5.53;4.95;;;;;;;15.66;54.97;102485.69;5074842;28;20024;-73
2022/07/06 02:10:29;;;;;;;8.60;4.88;;;;;;;15.69;55.06;102482.41;5071290;28;20036;-73
2022/07/06 02:12:54;;;;;;;5.28;4.18;;;;;;;15.65;55.25;102490.44;5073072;28;20492;-73
2022/07/06 02:15:19;;;;;;;6.88;4.93;;;;;;;15.66;54.91;102492.16;5072057;28;20024;-73
2022/07/06 02:17:44;;;;;;;6.57;4.95;;;;;;;15.63;55.18;102489.81;5076874;28;20031;-73
2022/07/06 02:20:10;;;;;;;6.40;4.80;;;;;;;15.61;55.42;102483.63;5072014;28;20432;-73
2022/07/06 02:22:35;;;;;;;6.07;4.90;;;;;;;15.63;55.36;102483.34;5072827;28;20032;-73
2022/07/06 02:25:00;;;;;;;7.10;5.15;;;;;;;15.63;55.48;102491.75;5071766;28;20016;-73
2022/07/06 02:27:26;;;;;;;5.93;4.70;;;;;;;15.61;55.45;102477.16;5075147;28;20043;-73
2022/07/06 02:29:51;;;;;;;6.15;5.15;;;;;;;15.56;55.51;102486.31;5076231;28;20032;-73
2022/07/06 02:32:16;;;;;;;7.00;4.60;;;;;;;15.54;55.61;102482.06;5084731;28;20024;-73
2022/07/06 02:34:42;;;;;;;7.30;5.32;;;;;;;15.53;55.95;102483.16;5074513;28;20013;-73
2022/07/06 02:37:07;;;;;;;6.10;4.75;;;;;;;15.56;55.86;102489.13;5072028;28;20074;-73
2022/07/06 02:39:33;;;;;;;7.13;5.30;;;;;;;15.56;55.79;102474.25;5073684;28;20028;-73
2022/07/06 02:41:58;;;;;;;8.50;5.38;;;;;;;15.46;55.74;102474.88;5072062;28;20078;-73
2022/07/06 02:44:23;;;;;;;10.35;5.03;;;;;;;15.47;56.07;102484.97;5073157;28;20036;-73
2022/07/06 02:46:48;;;;;;;5.55;5.05;;;;;;;15.44;56.02;102472.34;5079211;28;20059;-73
2022/07/06 02:49:14;;;;;;;6.57;5.10;;;;;;;15.40;56.13;102476.69;5074374;28;20024;-73
2022/07/06 02:51:39;;;;;;;6.85;5.00;;;;;;;15.43;56.03;102476.22;5073053;28;20051;-73
2022/07/06 02:54:04;;;;;;;7.85;4.97;;;;;;;15.40;56.19;102473.91;5072670;28;20077;-73
2022/07/06 02:56:29;;;;;;;6.95;5.22;;;;;;;15.42;55.95;102487.66;5074033;28;20043;-73
2022/07/06 02:58:55;;;;;;;7.38;5.25;;;;;;;15.31;56.36;102492.19;5072481;28;20040;-73
2022/07/06 03:01:20;;;;;;;7.90;5.30;;;;;;;15.34;56.28;102496.44;5080524;28;20032;-73
2022/07/06 03:03:45;;;;;;;8.43;5.15;;;;;;;15.27;56.43;102490.97;5074060;28;20103;-73
2022/07/06 03:06:11;;;;;;;7.70;4.90;;;;;;;15.32;56.20;102499.47;5072399;28;20057;-73
2022/07/06 03:08:36;;;;;;;9.98;4.70;;;;;;;15.34;56.56;102488.91;5073867;28;20024;-73
2022/07/06 03:11:01;;;;;;;5.95;4.85;;;;;;;15.29;56.45;102487.91;5072885;28;20033;-73
2022/07/06 03:13:28;;;;;;;7.30;5.22;;;;;;;15.24;56.62;102491.44;5071785;28;20028;-73
2022/07/06 03:15:53;;;;;;;5.50;5.00;;;;;;;15.22;56.52;102490.84;5076639;28;20031;-73
2022/07/06 03:18:18;;;;;;;5.43;4.93;;;;;;;15.22;56.72;102488.91;5082237;28;20031;-73
2022/07/06 03:20:43;;;;;;;7.57;4.82;;;;;;;15.23;56.76;102503.75;5088328;28;20545;-73
2022/07/06 03:23:09;;;;;;;5.88;4.70;;;;;;;15.25;56.84;102498.78;5073191;28;20032;-73
2022/07/06 03:25:34;;;;;;;6.95;5.35;;;;;;;15.19;56.81;102500.56;5069837;28;20521;-73
2022/07/06 03:28:00;;;;;;;8.45;5.22;;;;;;;15.16;56.98;102498.25;5068044;28;20123;-73
2022/07/06 03:30:25;;;;;;;7.55;5.43;;;;;;;15.17;56.64;102502.78;5081450;28;20036;-73
2022/07/06 03:32:50;;;;;;;6.78;5.40;;;;;;;15.16;56.66;102497.41;5071638;28;20035;-73
2022/07/06 03:35:15;;;;;;;6.80;5.43;;;;;;;15.15;57.12;102498.53;5073141;28;20020;-73
2022/07/06 03:37:41;;;;;;;8.20;5.10;;;;;;;15.10;56.73;102501.22;5072048;28;20032;-73
2022/07/06 03:40:07;;;;;;;7.80;5.07;;;;;;;15.16;56.85;102491.81;5072301;28;20037;-73
2022/07/06 03:42:32;;;;;;;5.88;5.28;;;;;;;15.09;57.29;102497.56;5070838;28;20036;-73
2022/07/06 03:44:57;;;;;;;8.52;5.03;;;;;;;15.08;57.29;102493.03;5074571;28;20024;-73
2022/07/06 03:47:22;;;;;;;7.07;4.90;;;;;;;15.07;57.03;102490.50;5071691;28;20034;-73
2022/07/06 03:49:48;;;;;;;8.02;5.25;;;;;;;15.06;57.20;102488.81;5071858;28;20028;-73
2022/07/06 03:52:13;;;;;;;6.32;5.43;;;;;;;15.06;57.34;102500.00;5071836;28;20051;-73
2022/07/06 03:54:38;;;;;;;6.88;5.18;;;;;;;15.04;57.31;102499.38;5072401;28;20024;-73
2022/07/06 03:57:04;;;;;;;5.45;4.95;;;;;;;15.00;57.55;102496.19;5071638;28;20439;-73
2022/07/06 03:59:29;;;;;;;7.43;5.03;;;;;;;15.00;57.46;102498.16;5079667;28;20043;-73
2022/07/06 04:01:57;;;;;;;6.05;5.05;;;;;;;14.93;57.61;102490.75;5076244;28;20426;-73
2022/07/06 04:04:23;;;;;;;7.13;5.20;;;;;;;15.01;57.30;102492.31;5070310;28;20082;-73
2022/07/06 04:06:48;;;;;;;7.22;4.85;;;;;;;15.03;57.72;102494.88;5072063;28;20033;-73
2022/07/06 04:09:13;;;;;;;8.25;5.50;;;;;;;14.99;57.90;102494.50;5072214;28;20036;-73
2022/07/06 04:11:38;;;;;;;6.60;5.00;;;;;;;14.99;57.81;102494.50;5070477;28;20029;-73
2022/07/06 04:14:04;;;;;;;9.90;5.22;;;;;;;15.02;57.54;102493.19;5073423;28;20494;-73
2022/07/06 04:16:29;;;;;;;7.75;5.35;;;;;;;15.02;57.52;102487.59;5071710;28;20083;-73
2022/07/06 04:18:54;;;;;;;9.07;5.15;;;;;;;15.02;57.54;102488.44;5071572;28;20498;-72
2022/07/06 04:21:20;;;;;;;9.60;5.03;;;;;;;15.03;57.67;102492.06;5072688;28;20029;-73
2022/07/06 04:23:45;;;;;;;9.80;5.07;;;;;;;15.01;58.02;102477.47;5070170;28;20032;-73
2022/07/06 04:26:11;;;;;;;8.18;5.07;;;;;;;15.03;58.03;102475.31;5072597;28;20036;-73
2022/07/06 04:28:37;;;;;;;7.95;5.10;;;;;;;14.97;57.78;102472.41;5087010;28;20024;-73
2022/07/06 04:31:02;;;;;;;7.18;4.60;;;;;;;15.02;58.02;102474.44;5070743;28;20047;-73
2022/07/06 04:33:27;;;;;;;11.50;5.25;;;;;;;15.02;57.95;102477.25;5072247;28;20024;-73
2022/07/06 04:35:52;;;;;;;7.82;4.95;;;;;;;15.01;58.18;102475.53;5071539;28;20051;-73
2022/07/06 04:38:18;;;;;;;9.15;5.22;;;;;;;15.02;58.00;102465.22;5071197;28;20025;-72
2022/07/06 04:40:46;;;;;;;9.43;5.40;;;;;;;14.99;58.40;102474.94;5071121;28;20557;-73
2022/07/06 04:43:11;;;;;;;6.68;5.25;;;;;;;14.95;58.38;102470.94;5073409;28;20487;-73
2022/07/06 04:45:36;;;;;;;9.65;4.97;;;;;;;14.96;58.56;102476.25;5079004;28;20055;-73
2022/07/06 04:48:02;;;;;;;6.80;5.20;;;;;;;15.00;58.53;102473.00;5069581;28;20396;-73
2022/07/06 04:50:27;;;;;;;8.35;5.20;;;;;;;15.00;58.85;102482.22;5070570;28;20075;-73
2022/07/06 04:52:53;;;;;;;10.27;5.15;;;;;;;15.05;58.62;102478.69;5070602;28;20541;-73
2022/07/06 04:55:18;;;;;;;8.85;5.40;;;;;;;15.11;58.94;102481.38;5070563;28;20091;-73
2022/07/06 04:57:43;;;;;;;9.02;5.18;;;;;;;15.17;58.42;102483.22;5071622;28;20059;-73
2022/07/06 05:00:09;;;;;;;7.40;5.07;;;;;;;15.19;58.69;102481.00;5073307;28;20024;-73
2022/07/06 05:02:34;;;;;;;8.65;4.72;;;;;;;15.16;58.92;102477.84;5066147;28;20801;-72
2022/07/06 05:05:00;;;;;;;9.77;4.93;;;;;;;15.27;58.52;102478.94;5068529;28;20037;-73
2022/07/06 05:07:30;;;;;;;9.70;4.93;;;;;;;15.27;58.71;102485.38;5071686;28;20033;-73
2022/07/06 05:09:55;;;;;;;6.97;5.13;;;;;;;15.32;59.04;102488.28;5071622;28;20556;-73
2022/07/06 05:12:21;;;;;;;7.28;5.05;;;;;;;15.36;59.07;102500.69;5068288;28;20027;-73
2022/07/06 05:14:46;;;;;;;8.18;4.97;;;;;;;15.38;59.22;102492.06;5068649;28;20071;-73
2022/07/06 05:17:11;;;;;;;3.75;2.80;;;;;;;15.73;60.86;102502.38;5067918;28;20438;-70
2022/07/06 05:19:36;;;;;;;3.10;2.78;;;;;;;15.95;60.61;102500.56;5069566;28;20120;-73
2022/07/06 05:22:02;;;;;;;3.78;3.17;;;;;;;16.17;60.04;102500.72;5075368;28;20031;-72
2022/07/06 05:24:27;;;;;;;5.18;4.03;;;;;;;16.29;59.21;102504.31;5066138;28;20037;-74
2022/07/06 05:26:52;;;;;;;4.43;3.13;;;;;;;16.53;59.28;102501.38;5069478;28;20119;-71
2022/07/06 05:29:18;;;;;;;5.03;3.20;;;;;;;16.65;58.32;102507.78;5068451;28;20048;-73
2022/07/06 05:31:43;;;;;;;3.72;2.80;;;;;;;16.75;58.11;102516.41;5077047;28;20032;-72
2022/07/06 05:34:08;;;;;;;6.68;3.00;;;;;;;16.87;57.87;102500.34;5073780;28;20052;-72
2022/07/06 05:36:33;;;;;;;5.70;2.80;;;;;;;17.01;57.57;102505.59;5078800;28;20081;-73
2022/07/06 05:38:59;;;;;;;4.00;3.30;;;;;;;17.13;57.17;102504.41;5071432;28;20451;-73
2022/07/06 05:41:24;;;;;;;6.57;3.20;;;;;;;17.20;56.72;102506.16;5068764;28;20048;-72
2022/07/06 05:43:49;;;;;;;5.93;3.17;;;;;;;17.27;56.51;102498.44;5070510;28;20035;-69
2022/07/06 05:46:15;;;;;;;6.93;3.17;;;;;;;17.31;56.54;102511.69;5069980;28;20044;-73
2022/07/06 05:51:24;;;;;;;3.38;3.03;;;;;;;17.51;56.89;102504.66;5068795;28;20204;-74
2022/07/06 05:53:49;;;;;;;4.45;2.88;;;;;;;17.60;56.30;102506.75;5062615;28;20438;-70
2022/07/06 05:56:14;;;;;;;3.30;2.67;;;;;;;17.67;56.22;102514.97;5067176;28;20472;-70
2022/07/06 05:58:40;;;;;;;4.95;2.60;;;;;;;17.72;55.98;102512.22;5067214;28;20028;-71
2022/07/06 06:01:07;;;;;;;7.95;3.83;;;;;;;17.78;56.32;102519.66;5068167;28;20513;-74
2022/07/06 06:03:32;;;;;;;2.95;2.45;;;;;;;17.85;55.72;102517.50;5062494;28;20120;-72
2022/07/06 06:05:58;;;;;;;5.35;2.60;;;;;;;17.88;55.23;102522.59;5066202;28;20104;-72
2022/07/06 06:08:23;;;;;;;2.15;1.80;;;;;;;17.86;55.06;102524.81;5066833;28;20024;-72
2022/07/06 06:10:48;;;;;;;4.25;2.10;;;;;;;17.89;54.70;102523.44;5066052;28;20040;-72
2022/07/06 06:13:13;;;;;;;5.32;2.20;;;;;;;17.91;54.64;102519.25;5067522;28;20036;-72
2022/07/06 06:15:39;;;;;;;2.78;1.80;;;;;;;17.92;54.68;102522.94;5070920;28;20082;-74
2022/07/06 06:18:04;;;;;;;2.67;2.00;;;;;;;17.95;54.60;102521.53;5067793;28;20041;-71
2022/07/06 06:20:29;;;;;;;2.17;1.98;;;;;;;17.92;54.80;102517.31;5065882;28;20075;-76
2022/07/06 06:22:57;;;;;;;3.30;2.00;;;;;;;17.95;55.35;102524.34;5060210;28;20056;-71
2022/07/06 06:25:31;;;;;;;3.22;2.00;;;;;;;17.94;55.07;102519.84;5065733;28;20083;-69
2022/07/06 06:27:56;;;;;;;2.00;1.40;;;;;;;17.96;54.88;102526.91;5068502;28;20037;-69
2022/07/06 06:30:22;;;;;;;3.15;1.73;;;;;;;17.94;55.00;102514.22;5066690;28;20048;-70
2022/07/06 06:32:47;;;;;;;3.03;1.58;;;;;;;17.95;54.96;102522.38;5064628;28;20028;-70
2022/07/06 06:35:13;;;;;;;1.90;1.38;;;;;;;17.97;54.92;102517.38;5065420;28;20031;-70
2022/07/06 06:37:38;;;;;;;2.55;1.42;;;;;;;17.97;54.95;102528.59;5067419;28;20044;-70
2022/07/06 06:40:05;;;;;;;2.63;1.50;;;;;;;17.98;54.85;102530.28;5066749;28;20021;-69
2022/07/06 06:42:30;;;;;;;4.07;1.52;;;;;;;17.99;54.82;102529.19;5075114;28;20504;-70
2022/07/06 06:44:56;;;;;;;2.42;1.33;;;;;;;18.01;54.69;102521.34;5075092;28;20111;-70
2022/07/06 06:47:21;;;;;;;3.90;1.50;;;;;;;18.02;54.72;102533.44;5067430;28;20036;-69
2022/07/06 06:49:47;;;;;;;3.00;1.55;;;;;;;18.03;54.64;102530.34;5068777;28;20467;-69
2022/07/06 06:52:12;;;;;;;6.10;1.73;;;;;;;17.99;54.60;102533.94;5064561;28;20023;-70
2022/07/06 06:54:38;;;;;;;2.45;1.48;;;;;;;17.98;54.85;102532.25;5069814;28;20028;-69
2022/07/06 06:57:03;;;;;;;3.20;1.60;;;;;;;17.90;54.62;102530.75;5068541;28;20029;-71
2022/07/06 06:59:28;;;;;;;2.40;1.48;;;;;;;17.73;54.99;102532.75;5066388;28;20472;-70
2022/07/06 07:01:53;;;;;;;3.53;1.40;;;;;;;17.83;55.00;102536.56;5066235;28;20044;-70
2022/07/06 07:04:19;;;;;;;3.65;1.40;;;;;;;17.85;55.03;102539.13;5068468;28;20146;-70
2022/07/06 07:06:44;;;;;;;1.55;0.93;;;;;;;17.87;54.94;102537.75;5071353;28;20034;-70
2022/07/06 07:09:09;;;;;;;3.25;1.40;;;;;;;17.90;54.75;102540.03;5071447;28;20066;-70
2022/07/06 07:11:35;;;;;;;2.83;1.23;;;;;;;18.01;54.82;102534.56;5071139;28;20055;-70
2022/07/06 07:14:00;;;;;;;3.15;1.25;;;;;;;18.14;54.43;102537.78;5056079;28;20392;-70
2022/07/06 07:16:26;;;;;;;2.00;1.23;;;;;;;18.21;54.27;102543.22;5055924;28;20060;-70
2022/07/06 07:18:51;;;;;;;2.90;0.90;;;;;;;18.46;53.67;102531.38;5071204;28;20056;-70
2022/07/06 07:21:16;;;;;;;2.28;1.00;;;;;;;18.56;53.21;102536.28;5070074;28;20025;-70
2022/07/06 07:23:42;;;;;;;3.17;1.02;;;;;;;18.62;52.75;102538.84;5064602;28;20037;-71
2022/07/06 07:26:07;;;;;;;2.17;1.00;;;;;;;18.74;52.57;102535.91;5051398;28;20025;-71
2022/07/06 07:28:32;;;;;;;2.22;0.90;;;;;;;18.72;52.25;102528.88;5052574;28;20494;-71
2022/07/06 07:30:58;;;;;;;1.95;0.90;;;;;;;18.77;51.76;102532.56;5052589;28;20082;-70
2022/07/06 07:33:23;;;;;;;2.10;0.90;;;;;;;18.63;50.22;102545.34;5074503;28;20564;-70
2022/07/06 07:35:48;;;;;;;2.25;0.80;;;;;;;18.79;51.26;102543.56;5093041;28;20028;-70
2022/07/06 07:38:13;;;;;;;1.20;0.88;;;;;;;18.95;51.30;102541.75;5070689;28;20029;-70
2022/07/06 07:40:39;;;;;;;1.70;0.70;;;;;;;18.89;49.82;102538.84;5071086;28;20369;-70
2022/07/06 07:43:04;;;;;;;1.63;0.70;;;;;;;19.00;49.59;102539.81;5070435;28;20074;-71
2022/07/06 07:45:29;;;;;;;1.65;0.60;;;;;;;19.03;49.27;102541.25;5072417;28;20028;-71
2022/07/06 07:47:55;;;;;;;1.10;0.77;;;;;;;19.04;48.01;102537.31;5075834;28;20024;-70
2022/07/06 07:50:20;;;;;;;1.05;0.60;;;;;;;19.11;48.43;102540.75;5092233;28;20039;-70
2022/07/06 07:52:45;;;;;;;3.00;0.68;;;;;;;19.16;47.96;102539.91;5089120;28;20024;-71
2022/07/06 07:55:11;;;;;;;1.90;0.63;;;;;;;19.29;48.21;102539.44;5071474;28;20064;-69
2022/07/06 07:57:36;;;;;;;3.50;0.80;;;;;;;19.23;46.92;102535.75;5060998;28;20485;-70
2022/07/06 08:00:04;;;;;;;2.15;0.60;;;;;;;19.34;47.41;102534.72;5086791;28;20048;-71
2022/07/06 08:02:29;;;;;;;1.58;0.70;;;;;;;19.33;47.23;102532.16;5079445;28;20028;-70
2022/07/06 08:04:55;;;;;;;2.78;0.63;;;;;;;19.29;46.54;102531.84;5079046;28;20151;-70
2022/07/06 08:07:20;;;;;;;2.03;0.70;;;;;;;19.49;47.32;102525.53;5070106;28;20040;-70
2022/07/06 08:09:45;;;;;;;1.05;0.60;;;;;;;19.52;47.14;102524.09;5074436;28;20462;-70
2022/07/06 08:12:10;;;;;;;1.08;0.65;;;;;;;19.47;46.94;102516.47;5075492;28;20036;-71
2022/07/06 08:14:37;;;;;;;1.55;0.73;;;;;;;19.45;46.22;102523.50;5081129;28;20020;-70
2022/07/06 08:17:02;;;;;;;1.05;0.63;;;;;;;19.61;46.76;102511.22;5071314;28;20020;-70
2022/07/06 08:19:28;;;;;;;0.98;0.50;;;;;;;19.60;46.18;102523.59;5068238;28;20127;-70
2022/07/06 08:21:53;;;;;;;1.15;0.60;;;;;;;19.75;46.16;102511.59;5069648;28;20033;-70
2022/07/06 08:24:18;;;;;;;2.03;0.57;;;;;;;19.85;46.07;102523.75;5071900;28;20027;-70
2022/07/06 08:26:43;;;;;;;1.88;0.47;;;;;;;19.83;46.02;102525.97;5073959;28;20027;-70
2022/07/06 08:29:09;;;;;;;1.52;0.57;;;;;;;19.86;46.08;102519.81;5075153;28;20064;-70
2022/07/06 08:31:34;;;;;;;3.10;0.80;;;;;;;19.86;46.46;102513.31;5071302;28;20024;-70
2022/07/06 08:34:00;;;;;;;3.42;0.77;;;;;;;19.88;45.58;102515.84;5071165;28;20166;-70
2022/07/06 08:36:26;;;;;;;1.00;0.55;;;;;;;19.91;45.82;102515.31;5071244;28;20039;-70
2022/07/06 08:38:51;;;;;;;1.35;0.60;;;;;;;19.99;45.67;102512.81;5078958;28;20024;-70
2022/07/06 08:41:20;;;;;;;1.83;0.70;;;;;;;20.02;45.66;102511.41;5071215;28;20484;-70
2022/07/06 08:43:46;;;;;;;1.20;0.70;;;;;;;20.14;45.63;102512.00;5070404;28;20032;-70
2022/07/06 08:46:13;;;;;;;2.00;0.55;;;;;;;20.07;45.68;102512.25;5070605;28;20032;-71
2022/07/06 08:48:40;;;;;;;3.10;0.63;;;;;;;20.04;45.48;102514.78;5071275;28;20078;-70
2022/07/06 08:51:06;;;;;;;2.47;0.60;;;;;;;20.04;45.75;102511.97;5072972;28;20127;-71
2022/07/06 08:53:33;;;;;;;1.40;0.55;;;;;;;20.10;45.65;102508.06;5073808;28;20033;-70
2022/07/06 08:55:58;;;;;;;0.75;0.60;;;;;;;20.08;45.19;102504.66;5070919;28;20107;-70
2022/07/06 08:58:25;;;;;;;1.50;1.10;;;;;;;20.11;45.23;102504.94;5069812;28;20107;-70
2022/07/06 09:00:51;;;;;;;1.35;0.60;;;;;;;20.16;45.36;102503.25;5071446;28;20082;-70
2022/07/06 09:03:16;;;;;;;1.45;0.63;;;;;;;20.14;45.72;102499.88;5070967;28;20040;-70
2022/07/06 09:05:45;;;;;;;1.83;0.68;;;;;;;20.15;46.07;102504.41;5070586;28;20036;-70
2022/07/06 09:08:11;;;;;;;1.90;0.70;;;;;;;20.01;45.68;102504.94;5091151;28;20078;-70
2022/07/06 09:10:37;;;;;;;3.40;0.70;;;;;;;19.99;45.93;102501.53;5091504;28;20070;-71
2022/07/06 09:13:07;;;;;;;1.70;0.65;;;;;;;20.03;45.93;102505.47;5075873;28;20426;-71
2022/07/06 09:15:34;;;;;;;1.60;0.90;;;;;;;20.08;45.92;102501.81;5051214;28;20040;-70
2022/07/06 09:18:00;;;;;;;1.70;0.63;;;;;;;20.09;45.65;102500.72;5050256;28;20108;-70
2022/07/06 09:20:25;;;;;;;2.10;0.60;;;;;;;20.22;45.49;102505.81;5050817;28;20169;-70
2022/07/06 09:22:53;;;;;;;2.88;0.68;;;;;;;20.30;45.23;102502.47;5051193;28;20098;-70
2022/07/06 09:25:18;;;;;;;1.15;0.60;;;;;;;20.34;44.87;102500.78;5068512;28;20032;-70
2022/07/06 09:27:54;;;;;;;1.73;0.57;;;;;;;20.22;44.19;102503.00;5071211;28;20017;-70
2022/07/06 09:30:19;;;;;;;1.55;0.70;;;;;;;20.32;44.60;102505.03;5068624;28;20147;-70
2022/07/06 09:32:47;;;;;;;2.30;0.65;;;;;;;20.33;44.80;102501.91;5066411;28;20758;-70
2022/07/06 09:35:26;;;;;;;0.68;0.60;;;;;;;20.43;45.07;102506.69;5077793;28;20049;-70
2022/07/06 09:38:09;;;;;;;2.83;0.60;;;;;;;20.38;45.38;102506.72;5073222;28;20089;-70
2022/07/06 09:40:37;;;;;;;2.28;0.68;;;;;;;20.29;45.10;102512.06;5069965;28;20080;-70
2022/07/06 09:43:18;;;;;;;0.60;0.50;;;;;;;20.28;45.10;102507.53;5070369;28;20415;-69
2022/07/06 09:45:50;;;;;;;6.75;0.80;;;;;;;20.25;44.96;102519.38;5070616;28;20506;-70
2022/07/06 09:48:24;;;;;;;1.83;0.50;;;;;;;20.28;44.90;102512.34;5053234;28;20464;-70
2022/07/06 09:50:51;;;;;;;2.38;0.70;;;;;;;20.22;44.54;102516.25;5069648;28;20054;-70
2022/07/06 09:53:17;;;;;;;1.52;0.60;;;;;;;20.27;44.43;102519.09;5069620;28;20032;-70
2022/07/06 09:55:45;;;;;;;1.80;0.63;;;;;;;20.27;44.22;102522.75;5072558;28;20377;-70
2022/07/06 09:58:10;;;;;;;1.50;0.60;;;;;;;20.28;43.85;102513.19;5069955;28;20047;-70
2022/07/06 10:00:35;;;;;;;0.90;0.50;;;;;;;20.32;44.35;102516.31;5069682;28;20032;-70
2022/07/06 10:03:01;;;;;;;1.98;0.60;;;;;;;20.28;44.10;102507.53;5069919;28;20037;-70
2022/07/06 10:05:29;;;;;;;1.23;0.70;;;;;;;20.21;44.27;102520.22;5076799;28;20024;-70
2022/07/06 10:08:00;;;;;;;3.35;0.68;;;;;;;20.21;44.19;102520.22;5071868;28;20040;-70
2022/07/06 10:10:28;;;;;;;1.50;0.63;;;;;;;20.26;44.17;102518.25;5072270;28;20012;-70
2022/07/06 10:12:56;;;;;;;2.10;0.60;;;;;;;20.23;44.11;102518.78;5074082;28;20040;-70
2022/07/06 10:15:24;;;;;;;1.27;0.50;;;;;;;20.26;43.83;102523.03;5073132;28;20032;-70
2022/07/06 10:17:50;;;;;;;1.08;0.40;;;;;;;20.37;44.21;102526.75;5078003;28;20547;-70
2022/07/06 10:20:16;;;;;;;1.52;0.50;;;;;;;20.34;43.85;102522.50;5073646;28;20016;-70
2022/07/06 10:22:42;;;;;;;1.67;0.55;;;;;;;20.37;43.40;102526.75;5073095;28;20031;-70
2022/07/06 10:25:08;;;;;;;2.65;0.70;;;;;;;20.31;43.46;102521.06;5073620;28;20032;-70
2022/07/06 10:27:34;;;;;;;1.38;0.60;;;;;;;20.40;43.60;102521.38;5074145;28;20107;-70
2022/07/06 10:30:00;;;;;;;1.95;0.63;;;;;;;20.32;43.56;102519.13;5072783;28;20028;-70
2022/07/06 10:32:27;;;;;;;1.58;0.50;;;;;;;20.24;43.38;102514.00;5070406;28;20082;-70
2022/07/06 10:34:52;;;;;;;1.85;0.50;;;;;;;20.31;43.76;102515.41;5084335;28;20020;-71
2022/07/06 10:37:25;;;;;;;2.95;0.70;;;;;;;20.25;43.74;102522.19;5070805;28;20036;-71
2022/07/06 10:42:45;;;;;;;1.38;0.73;;;;;;;20.31;43.28;102509.78;5072125;28;20055;-70
2022/07/06 10:45:12;;;;;;;2.08;0.50;;;;;;;20.42;43.29;102523.91;5073658;28;20074;-70
2022/07/06 10:47:40;;;;;;;2.53;0.60;;;;;;;20.44;43.48;102516.03;5073951;28;20115;-70
2022/07/06 10:50:06;;;;;;;1.13;0.60;;;;;;;20.47;43.47;102513.47;5063882;28;20028;-71
2022/07/06 10:52:52;;;;;;;2.20;0.63;;;;;;;20.52;43.93;102522.00;5073516;28;20545;-69
2022/07/06 10:55:32;;;;;;;2.35;0.68;;;;;;;20.56;43.64;102517.50;5073862;28;20039;-68
2022/07/06 10:57:58;;;;;;;2.55;0.70;;;;;;;20.58;43.08;102514.38;5072742;28;20484;-67
2022/07/06 11:00:23;;;;;;;1.77;0.57;;;;;;;20.61;43.10;102502.53;5073499;28;20027;-68
2022/07/06 11:02:48;;;;;;;1.48;0.60;;;;;;;20.63;43.41;102508.72;5084679;28;20036;-68
2022/07/06 11:05:42;;;;;;;3.15;0.60;;;;;;;20.59;43.09;102508.47;5089850;28;20115;-65
2022/07/06 11:08:10;;;;;;;1.88;0.60;;;;;;;20.67;42.98;102498.59;5071216;28;20503;-66
2022/07/06 11:10:48;;;;;;;2.60;0.60;;;;;;;20.64;42.34;102507.63;5075195;28;20545;-69
2022/07/06 11:13:27;;;;;;;1.73;0.50;;;;;;;20.66;42.37;102502.53;5078350;28;20107;-70
2022/07/06 11:16:01;;;;;;;2.05;0.55;;;;;;;20.68;41.75;102502.28;5072719;28;20030;-70
2022/07/06 11:18:27;;;;;;;2.00;0.50;;;;;;;20.75;42.29;102509.34;5085267;28;20036;-70
2022/07/06 11:21:22;;;;;;;1.10;0.52;;;;;;;20.83;42.82;102513.56;5081333;28;20387;-70
2022/07/06 11:23:49;;;;;;;2.20;0.55;;;;;;;20.76;41.16;102501.72;5054947;28;20058;-70
2022/07/06 11:26:15;;;;;;;1.95;0.60;;;;;;;20.83;41.48;102499.44;5071827;28;20528;-70
2022/07/06 11:28:41;;;;;;;2.15;0.60;;;;;;;20.93;41.87;102504.22;5072468;28;20125;-70